Mora RC

2021-09-20 22:05:00

  • imperial
Date Time Air Temperature Relative Humidity Dewpoint Windchill Heat Index Wind Speed Wind Dir. Rain Solar Radiation Soil Temperature
2m 2m 3m 3m 10cm
US/Mountain F % F F F MPH deg in MJ/m^2 F
max avg avg
2021-09-19 22:20:00 54.4 55.3 38.7 54.4 54.4 0.0 4.0 1.2 239.5 274.8 0.00 0.0000000 69.0
2021-09-19 22:25:00 53.3 57.4 38.6 53.3 53.3 2.8 4.7 2.0 279.2 224.8 0.00 0.0000000 68.9
2021-09-19 22:30:00 52.6 59.4 38.8 52.6 52.6 0.0 4.7 1.9 321.1 256.0 0.00 0.0000000 68.8
2021-09-19 22:35:00 52.6 58.7 38.5 52.6 52.6 3.8 4.2 1.0 225.4 231.5 0.00 0.0000000 68.7
2021-09-19 22:40:00 52.2 60.2 38.8 52.2 52.2 1.9 4.2 1.7 246.7 266.7 0.00 0.0000000 68.6
2021-09-19 22:45:00 54.6 54.2 38.3 54.6 54.6 3.5 6.5 2.3 276.1 271.7 0.00 0.0000072 68.5
2021-09-19 22:50:00 57.9 48.0 38.3 57.9 57.9 3.0 4.7 3.3 275.7 289.8 0.00 0.0000144 68.5
2021-09-19 22:55:00 57.9 48.7 38.7 57.9 57.9 2.6 4.7 3.0 264.6 257.2 0.00 0.0000000 68.3
2021-09-19 23:00:00 58.3 47.7 38.5 58.3 58.3 2.2 4.7 2.8 274.6 269.4 0.00 0.0000000 68.2
2021-09-19 23:05:00 59.8 44.6 38.2 59.8 59.8 2.6 4.4 2.7 344.7 301.2 0.00 0.0000000 68.1
2021-09-19 23:10:00 61.4 41.8 37.9 61.4 61.4 2.8 8.1 4.5 307.8 272.1 0.00 0.0000000 68.1
2021-09-19 23:15:00 62.2 39.8 37.4 62.2 62.2 3.0 5.6 3.7 296.6 294.8 0.00 0.0000000 68.0
2021-09-19 23:20:00 63.8 37.5 37.3 63.8 63.8 1.9 5.6 3.4 276.0 300.6 0.00 0.0000000 67.9
2021-09-19 23:25:00 63.7 37.7 37.4 63.7 63.7 2.2 4.0 2.7 259.7 288.5 0.00 0.0000000 67.8
2021-09-19 23:30:00 62.0 40.6 37.8 62.0 62.0 2.2 3.8 2.2 253.0 214.8 0.00 0.0000000 67.7
2021-09-19 23:35:00 61.7 40.1 37.3 61.7 61.7 1.0 4.6 2.4 304.1 291.7 0.00 0.0000000 67.6
2021-09-19 23:40:00 62.5 38.2 36.6 62.5 62.5 6.2 6.9 2.8 338.2 265.3 0.00 0.0000000 67.6
2021-09-19 23:45:00 64.8 36.0 37.3 64.8 64.8 2.6 8.3 4.0 0.6 330.2 0.00 0.0000000 67.5
2021-09-19 23:50:00 65.7 34.3 36.8 65.7 65.7 4.9 9.6 4.5 319.2 349.1 0.00 0.0000000 67.4
2021-09-19 23:55:00 62.2 40.5 37.9 62.2 62.2 0.0 4.7 2.0 27.4 228.4 0.00 0.0000000 67.4
2021-09-20 00:00:00 60.9 40.9 36.9 60.9 60.9 3.0 4.2 1.6 46.0 42.6 0.00 0.0000000 67.3
2021-09-20 00:05:00 63.4 37.6 37.1 63.4 63.4 3.1 7.2 3.7 223.3 294.6 0.00 0.0000406 67.2
2021-09-20 00:10:00 63.2 37.0 36.5 63.2 63.2 2.8 7.1 3.1 54.6 228.2 0.00 0.0000000 67.2
2021-09-20 00:15:00 66.4 32.4 35.9 66.4 66.4 4.7 11.3 6.4 302.7 309.7 0.00 0.0000012 67.1
2021-09-20 00:20:00 67.4 31.5 36.1 67.4 67.4 3.7 12.6 7.2 176.8 313.7 0.00 0.0000000 67.0
2021-09-20 00:25:00 67.1 31.4 35.8 67.1 67.1 6.9 10.1 5.8 350.6 358.7 0.00 0.0000000 66.9
2021-09-20 00:30:00 67.2 31.7 36.1 67.2 67.2 1.2 9.0 4.6 128.6 326.3 0.00 0.0000000 66.9
2021-09-20 00:35:00 66.7 32.1 36.0 66.7 66.7 5.8 7.4 4.4 306.7 279.3 0.00 0.0000000 66.8
2021-09-20 00:40:00 67.1 30.8 35.3 67.1 67.1 16.4 16.4 7.7 307.2 315.8 0.00 0.0000000 66.8
2021-09-20 00:45:00 67.2 31.0 35.6 67.2 67.2 6.9 15.6 8.4 259.0 306.2 0.00 0.0000000 66.7
2021-09-20 00:50:00 66.9 31.2 35.4 66.9 66.9 8.3 11.9 7.4 302.2 302.8 0.00 0.0000000 66.7
2021-09-20 00:55:00 66.6 31.6 35.5 66.6 66.6 4.6 11.0 6.3 333.5 302.8 0.00 0.0000000 66.6
2021-09-20 01:00:00 66.4 31.8 35.5 66.4 66.4 2.8 12.2 5.3 165.8 301.7 0.00 0.0000000 66.6
2021-09-20 01:05:00 66.3 31.3 35.0 66.3 66.3 8.3 15.8 7.3 264.0 266.7 0.00 0.0000000 66.6
2021-09-20 01:10:00 66.4 30.7 34.6 66.4 66.4 9.9 12.8 7.8 305.7 292.0 0.00 0.0000000 66.5
2021-09-20 01:15:00 66.7 30.5 34.8 66.7 66.7 18.9 19.0 11.0 279.7 295.4 0.00 0.0000000 66.5
2021-09-20 01:20:00 66.9 30.4 34.8 66.9 66.9 11.5 19.8 12.0 280.7 302.4 0.00 0.0000000 66.4
2021-09-20 01:25:00 66.5 31.1 35.0 66.5 66.5 9.7 14.9 10.2 299.1 293.7 0.00 0.0000000 66.4
2021-09-20 01:30:00 66.2 31.7 35.2 66.2 66.2 11.9 12.2 7.8 312.6 305.5 0.00 0.0000000 66.3
2021-09-20 01:35:00 66.2 31.4 35.0 66.2 66.2 11.0 17.1 10.9 339.8 293.6 0.00 0.0000000 66.3
2021-09-20 01:40:00 66.2 32.2 35.6 66.2 66.2 9.0 13.0 9.2 246.5 300.7 0.00 0.0000000 66.3
2021-09-20 01:45:00 65.9 31.9 35.1 65.9 65.9 14.2 15.3 9.7 318.4 291.8 0.00 0.0000000 66.3
2021-09-20 01:50:00 66.0 31.8 35.1 66.0 66.0 7.4 14.4 9.4 296.7 293.9 0.00 0.0000000 66.2
2021-09-20 01:55:00 65.6 32.6 35.4 65.6 65.6 6.9 11.7 7.7 331.6 292.0 0.00 0.0000000 66.2
2021-09-20 02:00:00 65.2 32.1 34.7 65.2 65.2 8.8 10.8 7.4 293.0 285.1 0.00 0.0000000 66.2
2021-09-20 02:05:00 65.2 32.4 34.9 65.2 65.2 7.6 10.3 7.0 315.1 299.4 0.00 0.0000000 66.2
2021-09-20 02:10:00 65.9 30.9 34.3 65.9 65.9 11.0 12.8 8.7 327.2 296.8 0.00 0.0000000 66.1
2021-09-20 02:15:00 65.7 32.0 35.1 65.7 65.7 3.5 11.7 5.5 9.2 315.8 0.00 0.0000000 66.1
2021-09-20 02:20:00 64.9 33.2 35.3 64.9 64.9 2.4 4.7 2.2 49.6 350.1 0.00 0.0000000 66.1
2021-09-20 02:25:00 63.9 34.3 35.2 63.9 63.9 2.1 6.0 2.9 321.1 341.3 0.00 0.0000000 66.0
2021-09-20 02:30:00 64.3 34.2 35.5 64.3 64.3 2.8 10.8 4.6 244.4 291.5 0.00 0.0000000 66.0
2021-09-20 02:35:00 63.8 35.0 35.6 63.8 63.8 5.3 11.2 4.4 272.1 286.1 0.00 0.0000000 66.0
2021-09-20 02:40:00 64.8 33.1 35.0 64.8 64.8 4.4 9.4 6.0 336.6 306.4 0.00 0.0000000 66.0
2021-09-20 02:45:00 64.5 34.2 35.6 64.5 64.5 3.8 6.3 2.7 8.7 357.2 0.00 0.0000000 65.9
2021-09-20 02:50:00 63.2 35.6 35.5 63.2 63.2 2.4 4.7 2.7 185.9 164.9 0.00 0.0000000 65.9
2021-09-20 02:55:00 63.9 35.0 35.7 63.9 63.9 2.4 9.9 5.0 319.6 297.2 0.00 0.0000000 65.8
2021-09-20 03:00:00 63.5 34.9 35.3 63.5 63.5 4.2 5.8 3.3 258.7 310.3 0.00 0.0000000 65.8
2021-09-20 03:05:00 64.6 31.8 33.9 64.6 64.6 12.8 14.9 7.9 225.4 291.7 0.00 0.0000000 65.8
2021-09-20 03:10:00 65.6 31.2 34.3 65.6 65.6 11.5 14.0 8.4 231.3 288.1 0.00 0.0000000 65.7
2021-09-20 03:15:00 65.2 33.1 35.5 65.2 65.2 5.6 11.0 7.3 324.4 280.3 0.00 0.0000000 65.7
2021-09-20 03:20:00 63.8 34.5 35.3 63.8 63.8 7.1 7.1 3.2 240.9 288.6 0.00 0.0000000 65.6
2021-09-20 03:25:00 63.7 34.9 35.4 63.7 63.7 4.7 9.6 4.9 250.4 282.4 0.00 0.0000000 65.6
2021-09-20 03:30:00 63.2 35.1 35.2 63.2 63.2 5.5 8.5 5.8 291.4 284.7 0.00 0.0000000 65.6
2021-09-20 03:35:00 63.2 36.0 35.9 63.2 63.2 3.1 8.3 3.8 302.3 291.9 0.00 0.0000000 65.6
2021-09-20 03:40:00 62.6 36.0 35.3 62.6 62.6 3.8 5.3 3.6 276.4 256.2 0.00 0.0000000 65.5
2021-09-20 03:45:00 62.1 37.6 35.9 62.1 62.1 6.7 7.8 3.9 309.6 287.7 0.00 0.0000000 65.4
2021-09-20 03:50:00 62.8 36.1 35.5 62.8 62.8 4.6 8.1 4.6 286.0 271.9 0.00 0.0000000 65.4
2021-09-20 03:55:00 62.9 36.4 35.8 62.9 62.9 6.3 8.8 5.6 255.3 274.3 0.00 0.0000000 65.4
2021-09-20 04:00:00 63.6 33.9 34.7 63.6 63.6 4.7 11.2 6.8 268.5 276.7 0.00 0.0000000 65.3
2021-09-20 04:05:00 62.9 35.7 35.3 62.9 62.9 4.4 7.2 4.6 229.6 263.3 0.00 0.0000000 65.3
2021-09-20 04:10:00 62.8 34.3 34.3 62.8 62.8 8.1 13.5 6.8 308.7 267.6 0.00 0.0000000 65.3
2021-09-20 04:15:00 63.7 33.6 34.5 63.7 63.7 5.6 14.6 7.7 344.0 292.7 0.00 0.0000000 65.2
2021-09-20 04:20:00 63.6 34.3 34.9 63.6 63.6 4.0 9.0 4.6 22.5 316.4 0.00 0.0000000 65.2
2021-09-20 04:25:00 62.9 35.8 35.5 62.9 62.9 2.8 9.6 3.6 5.2 328.5 0.00 0.0000000 65.2
2021-09-20 04:30:00 62.0 36.9 35.3 62.0 62.0 7.8 7.8 3.5 334.3 310.8 0.00 0.0000000 65.1
2021-09-20 04:35:00 61.2 38.5 35.7 61.2 61.2 0.8 5.5 2.7 306.7 30.3 0.00 0.0000000 65.1
2021-09-20 04:40:00 61.5 36.2 34.4 61.5 61.5 5.1 7.6 4.4 344.1 338.6 0.00 0.0000000 65.0
2021-09-20 04:45:00 61.6 36.1 34.5 61.6 61.6 11.0 11.0 2.9 258.3 162.4 0.00 0.0000000 65.0
2021-09-20 04:50:00 62.2 34.8 34.1 62.2 62.2 10.8 14.2 6.3 337.8 303.0 0.00 0.0000000 65.0
2021-09-20 04:55:00 63.1 34.6 34.7 63.1 63.1 2.6 8.3 5.2 309.8 330.5 0.00 0.0000000 64.9
2021-09-20 05:00:00 61.8 37.2 35.4 61.8 61.8 2.2 3.7 1.5 81.0 49.2 0.00 0.0000000 64.9
2021-09-20 05:05:00 59.9 40.8 36.0 59.9 59.9 2.8 3.3 1.4 69.5 55.3 0.00 0.0000000 64.8
2021-09-20 05:10:00 59.2 40.7 35.3 59.2 59.2 5.6 6.5 3.2 224.8 189.6 0.00 0.0000000 64.8
2021-09-20 05:15:00 61.2 35.9 34.0 61.2 61.2 4.6 9.9 4.8 317.2 276.1 0.00 0.0000000 64.7
2021-09-20 05:20:00 63.4 28.4 30.1 63.4 63.4 13.1 17.2 7.2 344.7 299.5 0.00 0.0000000 64.7
2021-09-20 05:25:00 63.9 32.6 33.9 63.9 63.9 8.1 14.7 7.2 346.6 294.8 0.00 0.0000000 64.6
2021-09-20 05:30:00 63.1 35.0 35.0 63.1 63.1 6.7 11.3 7.2 310.1 337.1 0.00 0.0000000 64.6
2021-09-20 05:35:00 62.8 35.8 35.3 62.8 62.8 4.2 7.1 4.6 99.1 7.0 0.00 0.0000000 64.6
2021-09-20 05:40:00 62.3 35.7 34.8 62.3 62.3 3.5 8.5 4.9 18.1 241.6 0.00 0.0000000 64.5
2021-09-20 05:45:00 62.1 35.6 34.5 62.1 62.1 6.2 9.2 4.1 239.0 319.7 0.00 0.0000000 64.5
2021-09-20 05:50:00 62.0 36.6 35.1 62.0 62.0 4.6 8.3 5.4 264.0 310.4 0.00 0.0000000 64.4
2021-09-20 05:55:00 61.3 37.7 35.3 61.3 61.3 3.5 8.0 5.3 328.4 327.0 0.00 0.0000000 64.4
2021-09-20 06:00:00 62.9 33.8 33.9 62.9 62.9 2.4 12.4 5.4 57.3 2.4 0.00 0.0000000 64.3
2021-09-20 06:05:00 61.1 39.2 36.1 61.1 61.1 5.3 16.0 7.8 281.9 283.3 0.00 0.0000000 64.3
2021-09-20 06:10:00 61.0 38.4 35.5 61.0 61.0 2.6 6.0 3.5 278.1 263.6 0.00 0.0000000 64.3
2021-09-20 06:15:00 60.5 40.4 36.3 60.5 60.5 0.0 4.0 1.8 125.4 92.0 0.00 0.0000000 64.2
2021-09-20 06:20:00 58.9 43.5 36.8 58.9 58.9 1.7 2.2 1.1 73.7 31.8 0.00 0.0000000 64.2
2021-09-20 06:25:00 57.1 46.8 36.9 57.1 57.1 0.8 3.7 1.7 345.8 163.6 0.00 0.0000000 64.1
2021-09-20 06:30:00 59.1 39.2 34.3 59.1 59.1 4.2 8.5 4.2 287.2 335.2 0.00 0.0000000 64.1
2021-09-20 06:35:00 60.2 39.7 35.6 60.2 60.2 5.3 5.8 3.8 290.8 317.7 0.00 0.0000000 64.1
2021-09-20 06:40:00 59.6 42.1 36.5 59.6 59.6 3.3 5.3 3.2 66.1 18.8 0.00 0.0000000 64.0
2021-09-20 06:45:00 59.9 38.5 34.5 59.9 59.9 6.2 9.4 4.3 283.8 170.0 0.00 0.0001112 64.0
2021-09-20 06:50:00 62.0 35.0 34.1 62.0 62.0 10.1 11.9 7.0 325.1 284.1 0.00 0.0007056 64.0
2021-09-20 06:55:00 62.5 34.4 34.0 62.5 62.5 7.2 8.8 5.5 245.7 293.2 0.00 0.0012517 63.9
2021-09-20 07:00:00 62.7 34.6 34.4 62.7 62.7 6.9 9.6 5.8 12.2 352.4 0.00 0.0022512 63.9
2021-09-20 07:05:00 62.8 35.3 34.9 62.8 62.8 7.1 10.3 6.9 343.3 309.2 0.00 0.0105378 63.8
2021-09-20 07:10:00 62.5 35.4 34.7 62.5 62.5 3.8 8.3 4.5 76.8 356.1 0.00 0.0153867 63.8
2021-09-20 07:15:00 62.3 36.6 35.4 62.3 62.3 0.0 4.0 2.4 115.9 222.9 0.00 0.0195166 63.8
2021-09-20 07:20:00 62.6 35.3 34.8 62.6 62.6 3.3 7.6 4.2 59.9 337.0 0.00 0.0243861 63.7
2021-09-20 07:25:00 62.8 35.6 35.1 62.8 62.8 0.0 10.3 3.4 346.5 328.9 0.00 0.0287690 63.7
2021-09-20 07:30:00 62.2 40.3 37.7 62.2 62.2 2.8 5.8 3.1 127.8 6.3 0.00 0.0331268 63.6
2021-09-20 07:35:00 62.3 39.9 37.6 62.3 62.3 2.6 3.5 1.6 256.5 84.7 0.00 0.0376225 63.6
2021-09-20 07:40:00 62.3 41.7 38.7 62.3 62.3 0.0 4.0 2.3 265.8 168.6 0.00 0.0423873 63.6
2021-09-20 07:45:00 62.8 40.3 38.3 62.8 62.8 0.0 2.4 0.6 173.3 325.2 0.00 0.0472929 63.5
2021-09-20 07:50:00 63.8 38.7 38.2 63.8 63.8 1.9 3.3 0.9 64.8 54.3 0.00 0.0521513 63.5
2021-09-20 07:55:00 64.3 37.9 38.1 64.3 64.3 0.0 2.8 1.0 227.2 6.3 0.00 0.0566028 63.5
2021-09-20 08:00:00 65.3 34.9 36.8 65.3 65.3 2.4 2.8 1.2 65.3 76.1 0.00 0.0612949 63.5
2021-09-20 08:05:00 64.8 35.8 37.0 64.8 64.8 2.1 2.6 2.0 9.5 348.0 0.00 0.0658638 63.5
2021-09-20 08:10:00 64.2 37.4 37.6 64.2 64.2 0.8 5.6 3.2 229.3 324.0 0.00 0.0705755 63.5
2021-09-20 08:15:00 64.9 34.8 36.4 64.9 64.9 3.3 5.3 2.0 283.6 256.3 0.00 0.0752041 63.5
2021-09-20 08:20:00 64.7 35.8 37.0 64.7 64.7 4.9 8.1 4.4 4.5 318.0 0.00 0.0799304 63.5
2021-09-20 08:25:00 65.1 33.7 35.8 65.1 65.1 6.7 7.4 4.9 283.9 310.3 0.00 0.0852286 63.5
2021-09-20 08:30:00 64.6 35.1 36.4 64.6 64.6 5.5 9.6 6.0 76.9 311.9 0.00 0.0899008 63.5
2021-09-20 08:35:00 64.9 34.4 36.1 64.9 64.9 4.2 6.3 4.2 48.6 328.6 0.00 0.0952466 63.5
2021-09-20 08:40:00 64.7 35.9 37.1 64.7 64.7 6.7 10.3 5.9 310.2 296.3 0.00 0.1001606 63.5
2021-09-20 08:45:00 64.9 33.0 35.0 64.9 64.9 4.4 9.6 6.1 342.7 332.7 0.00 0.1055584 63.5
2021-09-20 08:50:00 65.0 34.9 36.6 65.0 65.0 4.2 9.2 5.3 269.5 297.8 0.00 0.1108301 63.6
2021-09-20 08:55:00 65.4 33.9 36.2 65.4 65.4 5.1 10.8 5.9 276.2 289.8 0.00 0.1155695 63.6
2021-09-20 09:00:00 65.2 33.6 35.8 65.2 65.2 6.5 14.6 8.0 314.7 287.5 0.00 0.1204246 63.7
2021-09-20 09:05:00 65.0 34.1 36.0 65.0 65.0 4.9 11.7 6.4 267.7 321.1 0.00 0.1249809 63.7
2021-09-20 09:10:00 65.6 33.0 35.7 65.6 65.6 10.6 10.6 5.5 312.4 312.0 0.00 0.1302982 63.8
2021-09-20 09:15:00 65.9 32.9 35.9 65.9 65.9 6.0 9.9 5.6 307.8 319.9 0.00 0.1349805 63.8
2021-09-20 09:20:00 66.2 30.5 34.3 66.2 66.2 4.7 10.8 7.4 328.0 318.3 0.00 0.1395008 63.9
2021-09-20 09:25:00 66.6 31.5 35.4 66.6 66.6 5.1 6.3 4.5 323.1 327.8 0.00 0.1445473 64.0
2021-09-20 09:30:00 66.3 33.3 36.5 66.3 66.3 1.2 8.7 5.5 336.4 320.0 0.00 0.1493844 64.1
2021-09-20 09:35:00 66.9 32.0 36.0 66.9 66.9 7.4 8.0 4.6 326.8 332.1 0.00 0.1551570 64.2
2021-09-20 09:40:00 66.8 30.6 34.8 66.8 66.8 4.7 11.0 6.8 327.7 322.9 0.00 0.1591251 64.3
2021-09-20 09:45:00 66.7 31.9 35.8 66.7 66.7 4.7 14.4 7.6 306.1 327.3 0.00 0.1641134 64.4
2021-09-20 09:50:00 67.2 28.4 33.4 67.2 67.2 8.7 10.5 6.7 346.7 333.1 0.00 0.1685348 64.5
2021-09-20 09:55:00 66.9 29.1 33.7 66.9 66.9 6.3 10.6 7.1 20.9 319.1 0.00 0.1725133 64.7
2021-09-20 10:00:00 67.5 29.6 34.6 67.5 67.5 7.1 7.1 3.3 336.8 330.9 0.00 0.1763479 64.8
2021-09-20 10:05:00 67.6 30.0 35.1 67.6 67.6 5.5 8.3 5.8 326.4 310.4 0.00 0.1808881 64.9
2021-09-20 10:10:00 68.6 27.3 33.6 68.6 68.6 2.6 9.2 4.4 65.3 331.2 0.00 0.1847498 65.0
2021-09-20 10:15:00 68.3 27.8 33.7 68.3 68.3 4.9 11.0 5.8 294.0 316.6 0.00 0.1887271 65.2
2021-09-20 10:20:00 68.1 27.8 33.6 68.1 68.1 6.9 11.9 6.5 345.5 325.8 0.00 0.1932975 65.3
2021-09-20 10:25:00 68.3 27.6 33.5 68.3 68.3 6.2 9.9 6.3 285.7 309.4 0.00 0.1968492 65.5
2021-09-20 10:30:00 68.7 26.6 33.0 68.7 68.7 10.1 11.7 7.0 318.7 322.8 0.00 0.2012431 65.7
2021-09-20 10:35:00 68.6 26.7 33.0 68.6 68.6 8.0 10.1 7.5 311.9 327.5 0.00 0.2043926 65.8
2021-09-20 10:40:00 69.1 27.3 34.0 69.1 69.1 4.6 11.5 6.2 321.6 344.2 0.00 0.2083387 66.0
2021-09-20 10:45:00 69.5 26.6 33.6 69.5 69.5 3.7 8.1 4.5 308.2 313.4 0.00 0.2120753 66.2
2021-09-20 10:50:00 70.1 24.0 31.6 70.1 70.1 7.4 11.2 7.9 325.1 321.6 0.00 0.2162925 66.4
2021-09-20 10:55:00 69.7 23.9 31.1 69.7 69.7 6.2 11.9 7.5 295.5 330.7 0.00 0.2197758 66.5
2021-09-20 11:00:00 70.1 25.1 32.8 70.1 70.1 6.2 9.2 6.4 298.4 295.8 0.00 0.2229031 66.8
2021-09-20 11:05:00 70.2 22.6 30.2 70.2 70.2 8.8 12.6 7.1 275.6 306.2 0.00 0.2257786 66.9
2021-09-20 11:10:00 70.2 24.3 32.0 70.2 70.2 4.9 8.7 5.3 340.1 307.2 0.00 0.2285408 67.2
2021-09-20 11:15:00 71.2 21.7 30.0 71.2 71.2 4.4 6.5 4.1 86.3 0.8 0.00 0.2318403 67.4
2021-09-20 11:20:00 71.2 20.4 28.5 71.2 71.2 2.1 11.7 6.5 342.3 327.0 0.00 0.2332202 67.6
2021-09-20 11:25:00 71.3 20.4 28.7 71.3 71.3 6.3 10.5 5.6 95.7 305.8 0.00 0.2357240 67.8
2021-09-20 11:30:00 73.4 20.1 30.0 73.4 73.4 5.5 7.1 3.7 348.4 308.4 0.00 0.2387740 68.1
2021-09-20 11:35:00 72.7 18.0 26.7 72.7 72.7 6.7 12.4 6.7 292.9 320.1 0.00 0.2409468 68.4
2021-09-20 11:40:00 72.3 18.9 27.6 72.3 72.3 5.5 10.6 6.7 308.6 325.0 0.00 0.2424917 68.7
2021-09-20 11:45:00 72.3 19.9 28.9 72.3 72.3 2.8 8.7 4.6 341.4 349.0 0.00 0.2443542 69.0
2021-09-20 11:50:00 73.3 18.1 27.4 73.3 73.3 4.7 6.9 3.7 249.1 302.8 0.00 0.2458307 69.3
2021-09-20 11:55:00 73.8 19.3 29.3 73.8 73.8 4.6 8.7 4.5 158.9 180.0 0.00 0.2473707 69.6
2021-09-20 12:00:00 74.4 19.1 29.6 74.4 74.4 8.5 10.5 7.0 170.7 134.0 0.00 0.2492339 69.9
2021-09-20 12:05:00 74.5 19.9 30.6 74.5 74.5 6.9 11.0 7.7 132.8 137.5 0.00 0.2504931 70.2
2021-09-20 12:10:00 75.5 19.3 30.7 75.5 75.5 5.8 10.1 5.9 72.9 97.3 0.00 0.2535630 70.5
2021-09-20 12:15:00 75.0 18.0 28.6 75.0 75.0 9.2 10.3 6.3 135.9 111.8 0.00 0.2542753 70.9
2021-09-20 12:20:00 74.4 18.8 29.2 74.4 74.4 5.8 10.5 6.5 89.0 101.3 0.00 0.2553855 71.2
2021-09-20 12:25:00 74.8 19.2 29.9 74.8 74.8 6.7 9.2 6.4 111.5 92.0 0.00 0.2558563 71.5
2021-09-20 12:30:00 74.6 18.2 28.6 74.6 74.6 10.3 10.5 7.5 97.5 98.7 0.00 0.2569569 71.9
2021-09-20 12:35:00 74.7 19.2 29.9 74.7 74.7 3.7 9.0 6.2 11.1 81.3 0.00 0.2572780 72.2
2021-09-20 12:40:00 74.2 19.1 29.4 74.2 74.2 7.6 8.5 5.8 72.5 79.2 0.00 0.2580556 72.6
2021-09-20 12:45:00 73.7 21.0 31.3 73.7 73.7 2.2 8.8 5.2 112.9 73.1 0.00 0.2592072 72.9
2021-09-20 12:50:00 74.7 18.4 28.9 74.7 74.7 4.6 6.3 3.3 86.9 51.1 0.00 0.2592069 73.2
2021-09-20 12:55:00 75.7 19.1 30.6 75.7 75.7 3.1 8.3 4.6 32.9 88.3 0.00 0.2566611 73.6
2021-09-20 13:00:00 75.9 18.4 29.9 75.9 75.9 3.7 7.8 5.3 103.0 74.1 0.00 0.2590078 73.9
2021-09-20 13:05:00 76.6 19.9 32.4 76.6 76.6 3.3 6.2 3.7 54.5 86.2 0.00 0.2593549 74.3
2021-09-20 13:10:00 76.1 16.1 26.8 76.1 76.1 6.5 6.5 3.7 109.8 65.2 0.00 0.2586431 74.6
2021-09-20 13:15:00 76.7 16.7 28.1 76.7 76.7 4.0 8.3 3.7 68.5 80.4 0.00 0.2599963 74.9
2021-09-20 13:20:00 75.6 18.4 29.7 75.6 75.6 4.4 5.5 3.1 113.2 95.0 0.00 0.2548296 75.2
2021-09-20 13:25:00 76.0 19.1 30.9 76.0 76.0 3.7 7.2 3.9 67.8 45.3 0.00 0.2552322 75.5
2021-09-20 13:30:00 75.8 17.9 29.2 75.8 75.8 1.2 5.5 3.4 304.6 69.1 0.00 0.2547989 75.8
2021-09-20 13:35:00 76.0 19.0 30.8 76.0 76.0 5.3 5.5 3.2 88.3 17.7 0.00 0.2536235 76.0
2021-09-20 13:40:00 75.5 16.4 26.8 75.5 75.5 5.3 7.1 5.1 73.2 76.1 0.00 0.2532531 76.2
2021-09-20 13:45:00 76.3 16.2 27.0 76.3 76.3 4.4 6.2 3.7 29.0 27.0 0.00 0.2528617 76.5
2021-09-20 13:50:00 76.5 15.7 26.5 76.5 76.5 8.3 8.3 3.0 143.4 247.7 0.00 0.2486777 76.7
2021-09-20 13:55:00 76.8 16.3 27.6 76.8 76.8 2.2 9.0 5.3 147.5 121.0 0.00 0.2491265 76.9
2021-09-20 14:00:00 77.0 17.6 29.6 77.0 77.0 3.8 6.7 4.1 54.2 120.4 0.00 0.2483514 77.1
2021-09-20 14:05:00 76.5 16.4 27.6 76.5 76.5 4.9 8.1 5.2 95.4 95.9 0.00 0.2474360 77.3
2021-09-20 14:10:00 76.8 15.3 26.2 76.8 76.8 2.2 7.2 4.1 207.6 108.2 0.00 0.2457689 77.4
2021-09-20 14:15:00 77.5 13.7 24.0 77.5 77.5 1.3 6.3 3.1 80.4 121.3 0.00 0.2438809 77.7
2021-09-20 14:20:00 77.1 12.2 21.0 77.1 77.1 3.5 8.7 3.9 318.7 11.6 0.00 0.2428026 77.8
2021-09-20 14:25:00 76.5 13.2 22.4 76.5 76.5 4.0 11.9 7.2 313.0 311.5 0.00 0.2392712 78.0
2021-09-20 14:30:00 76.7 13.3 22.6 76.7 76.7 3.0 11.9 6.7 34.5 326.4 0.00 0.2371096 78.2
2021-09-20 14:35:00 76.3 12.9 21.6 76.3 76.3 4.9 14.6 6.8 314.2 327.3 0.00 0.2347328 78.4
2021-09-20 14:40:00 75.3 15.0 24.5 75.3 75.3 4.9 13.1 8.6 294.2 306.6 0.00 0.2309030 78.6
2021-09-20 14:45:00 76.4 14.1 23.8 76.4 76.4 3.8 11.5 7.8 319.9 327.4 0.00 0.2284828 78.8
2021-09-20 14:50:00 77.7 13.0 22.9 77.7 77.7 3.1 6.0 3.4 272.0 334.8 0.00 0.2256605 79.0
2021-09-20 14:55:00 78.7 12.2 22.3 78.7 78.7 9.9 9.9 4.0 309.8 318.7 0.00 0.2225535 79.2
2021-09-20 15:00:00 76.9 14.2 24.5 76.9 76.9 6.2 11.3 6.6 295.9 316.5 0.00 0.2187297 79.3
2021-09-20 15:05:00 77.6 13.8 24.2 77.6 77.6 8.8 9.9 6.6 5.3 305.6 0.00 0.2159333 79.5
2021-09-20 15:10:00 77.3 14.6 25.3 77.3 77.3 5.1 16.2 7.8 309.4 320.1 0.00 0.2120664 79.7
2021-09-20 15:15:00 76.9 14.1 24.3 76.9 76.9 4.2 7.8 4.8 254.9 306.2 0.00 0.2080747 79.8
2021-09-20 15:20:00 77.6 13.5 23.7 77.6 77.6 1.7 5.5 3.7 194.7 326.7 0.00 0.2043252 80.0
2021-09-20 15:25:00 78.6 13.8 25.1 78.6 78.6 4.4 7.6 4.1 254.6 316.9 0.00 0.2015755 80.1
2021-09-20 15:30:00 77.0 15.3 26.4 77.0 77.0 4.7 11.7 6.7 301.3 300.7 0.00 0.1977650 80.2
2021-09-20 15:35:00 76.8 14.8 25.2 76.8 76.8 6.9 10.1 7.4 284.4 293.5 0.00 0.1943763 80.3
2021-09-20 15:40:00 77.5 14.5 25.3 77.5 77.5 9.9 10.3 6.2 310.0 281.8 0.00 0.1923633 80.4
2021-09-20 15:45:00 77.0 15.0 25.9 77.0 77.0 5.5 12.2 6.8 348.0 324.0 0.00 0.1885341 80.5
2021-09-20 15:50:00 76.8 14.0 24.0 76.8 76.8 5.1 10.5 6.3 326.4 323.4 0.00 0.1834220 80.5
2021-09-20 15:55:00 77.2 14.6 25.3 77.2 77.2 7.8 12.1 5.3 313.5 279.9 0.00 0.1800438 80.7
2021-09-20 16:00:00 77.1 15.2 26.2 77.1 77.1 6.5 8.5 5.3 309.6 289.2 0.00 0.1783569 80.7
2021-09-20 16:05:00 76.6 14.8 25.1 76.6 76.6 8.5 12.1 7.9 335.9 301.8 0.00 0.1672445 80.7
2021-09-20 16:10:00 76.4 15.6 26.3 76.4 76.4 9.0 11.0 7.5 318.4 309.2 0.00 0.1567668 80.8
2021-09-20 16:15:00 76.7 15.4 26.3 76.7 76.7 6.3 10.1 7.0 321.6 308.0 0.00 0.1664339 80.8
2021-09-20 16:20:00 76.7 15.6 26.6 76.7 76.7 4.4 14.0 6.8 347.8 319.1 0.00 0.1633444 80.8
2021-09-20 16:25:00 77.4 15.8 27.4 77.4 77.4 2.1 11.2 5.3 307.9 323.0 0.00 0.1301394 80.8
2021-09-20 16:30:00 78.1 14.2 25.3 78.1 78.1 1.9 5.6 3.7 306.3 317.7 0.00 0.1530737 80.8
2021-09-20 16:35:00 76.1 16.6 27.6 76.1 76.1 6.2 14.9 7.3 87.8 347.4 0.00 0.0749132 80.8
2021-09-20 16:40:00 74.7 24.7 36.3 74.7 74.7 6.2 9.6 5.1 77.6 70.5 0.00 0.0397597 80.8
2021-09-20 16:45:00 73.0 28.1 38.0 73.0 73.0 8.1 9.9 6.9 79.9 89.3 0.00 0.0350798 80.8
2021-09-20 16:50:00 72.6 28.5 38.0 72.6 72.6 7.6 9.0 6.4 74.9 89.5 0.00 0.0726677 80.7
2021-09-20 16:55:00 73.3 28.3 38.6 73.3 73.3 8.1 11.0 6.7 136.0 102.7 0.00 0.1031881 80.7
2021-09-20 17:00:00 72.6 29.5 39.0 72.6 72.6 7.1 9.6 7.2 85.4 103.0 0.00 0.0699535 80.6
2021-09-20 17:05:00 71.2 30.5 38.6 71.2 71.2 7.1 8.5 5.9 112.7 99.6 0.00 0.0301828 80.5
2021-09-20 17:10:00 70.4 32.2 39.3 70.4 70.4 5.6 9.7 6.5 108.1 101.7 0.00 0.0274539 80.5
2021-09-20 17:15:00 70.3 31.7 38.7 70.3 70.3 4.6 9.9 6.3 70.5 88.3 0.00 0.0337463 80.4
2021-09-20 17:20:00 70.2 31.9 38.8 70.2 70.2 5.8 9.6 6.9 75.1 91.5 0.00 0.0336017 80.2
2021-09-20 17:25:00 69.7 32.2 38.7 69.7 69.7 5.3 9.9 6.3 97.1 95.6 0.00 0.0230478 80.1
2021-09-20 17:30:00 69.2 33.8 39.5 69.2 69.2 4.2 10.5 5.8 82.5 97.1 0.00 0.0212143 80.0
2021-09-20 17:35:00 69.0 33.2 38.8 69.0 69.0 5.5 11.2 6.9 118.0 102.1 0.00 0.0289185 79.9
2021-09-20 17:40:00 69.0 34.0 39.4 69.0 69.0 6.3 8.7 6.4 112.8 108.0 0.00 0.0380716 79.7
2021-09-20 17:45:00 68.9 33.9 39.3 68.9 68.9 5.3 9.7 6.8 90.0 106.5 0.00 0.0331129 79.6
2021-09-20 17:50:00 68.7 33.3 38.6 68.7 68.7 6.0 8.5 5.8 96.5 100.4 0.00 0.0286549 79.4
2021-09-20 17:55:00 68.6 33.8 39.0 68.6 68.6 3.7 5.8 4.7 85.3 85.2 0.00 0.0258583 79.3
2021-09-20 18:00:00 68.5 33.8 38.9 68.5 68.5 5.6 7.6 4.8 83.5 82.0 0.00 0.0268700 79.1
2021-09-20 18:05:00 68.3 35.2 39.7 68.3 68.3 1.7 6.3 3.8 84.2 83.0 0.00 0.0235021 79.0
2021-09-20 18:10:00 67.9 36.8 40.6 67.9 67.9 1.3 3.1 1.9 46.5 82.4 0.00 0.0206266 78.8
2021-09-20 18:15:00 67.5 35.5 39.2 67.5 67.5 4.4 5.1 3.0 67.1 76.5 0.00 0.0182494 78.7
2021-09-20 18:20:00 67.2 35.7 39.1 67.2 67.2 5.1 6.5 3.7 94.3 91.4 0.00 0.0142728 78.5
2021-09-20 18:25:00 67.7 18.8 23.7 67.7 67.7 10.8 10.8 5.7 65.9 81.5 0.00 0.0118221 78.4
2021-09-20 18:30:00 67.7 19.5 24.5 67.7 67.7 3.0 9.0 3.9 112.5 78.6 0.00 0.0104578 78.2
2021-09-20 18:35:00 67.1 27.8 32.7 67.1 67.1 5.5 10.1 4.7 77.7 93.5 0.00 0.0080181 78.0
2021-09-20 18:40:00 66.9 22.7 27.5 66.9 66.9 7.2 10.1 5.5 69.4 86.3 0.00 0.0065181 77.9
2021-09-20 18:45:00 66.7 17.9 21.7 66.7 66.7 3.7 9.4 5.2 61.7 75.8 0.00 0.0059720 77.7
2021-09-20 18:50:00 66.7 17.3 20.9 66.7 66.7 3.1 8.1 4.1 76.9 73.2 0.00 0.0050149 77.6
2021-09-20 18:55:00 66.2 16.2 18.9 66.2 66.2 3.3 7.8 4.3 60.5 70.8 0.00 0.0030752 77.4
2021-09-20 19:00:00 65.8 15.6 17.7 65.8 65.8 3.5 6.5 4.5 114.1 73.8 0.00 0.0020738 77.2
2021-09-20 19:05:00 65.5 15.8 17.7 65.5 65.5 3.1 7.8 3.9 87.7 91.1 0.00 0.0013945 77.1
2021-09-20 19:10:00 65.3 14.9 16.2 65.3 65.3 4.6 5.8 3.7 93.2 94.2 0.00 0.0004450 76.9
2021-09-20 19:15:00 64.9 15.4 16.6 64.9 64.9 4.9 4.9 3.6 90.6 86.7 0.00 0.0000000 76.7
2021-09-20 19:20:00 64.4 15.6 16.6 64.4 64.4 3.3 6.9 4.4 106.0 100.7 0.00 0.0000000 76.6
2021-09-20 19:25:00 64.6 19.0 21.4 64.6 64.6 6.5 9.6 6.4 71.7 98.0 0.00 0.0000000 76.4
2021-09-20 19:30:00 64.2 34.2 35.4 64.2 64.2 5.3 7.8 6.1 110.1 98.6 0.00 0.0000000 76.2
2021-09-20 19:35:00 63.3 17.7 18.7 63.3 63.3 5.3 7.1 4.8 128.1 101.7 0.00 0.0000000 76.0
2021-09-20 19:40:00 62.4 38.9 37.1 62.4 62.4 4.6 7.6 5.1 113.6 116.7 0.00 0.0000000 75.8
2021-09-20 19:45:00 61.6 41.8 38.1 61.6 61.6 3.5 7.2 3.8 184.2 145.7 0.00 0.0000000 75.6
2021-09-20 19:50:00 60.8 43.1 38.2 60.8 60.8 2.8 3.8 2.7 200.2 191.6 0.00 0.0000000 75.5
2021-09-20 19:55:00 60.8 43.5 38.4 60.8 60.8 0.0 3.0 0.7 84.7 182.7 0.00 0.0000000 75.3
2021-09-20 20:00:00 60.6 43.9 38.5 60.6 60.6 0.0 3.0 1.1 82.9 109.5 0.00 0.0000000 75.1
2021-09-20 20:05:00 60.0 44.2 38.1 60.0 60.0 0.0 0.0 0.0 231.8 0.0 0.00 0.0000000 74.9
2021-09-20 20:10:00 59.0 45.0 37.7 59.0 59.0 1.0 1.9 1.0 140.4 200.8 0.00 0.0000000 74.7
2021-09-20 20:15:00 59.4 45.3 38.2 59.4 59.4 2.1 2.6 1.3 139.5 168.8 0.00 0.0000000 74.6
2021-09-20 20:20:00 59.8 45.3 38.6 59.8 59.8 1.7 2.6 1.4 115.3 119.4 0.00 0.0000000 74.4
2021-09-20 20:25:00 59.1 46.4 38.5 59.1 59.1 2.2 3.1 2.0 31.1 49.8 0.00 0.0000000 74.2
2021-09-20 20:30:00 58.4 47.4 38.5 58.4 58.4 1.7 3.0 1.8 37.8 33.3 0.00 0.0000000 74.1
2021-09-20 20:35:00 58.1 47.8 38.4 58.1 58.1 0.0 2.1 0.5 345.2 24.5 0.00 0.0000000 73.9
2021-09-20 20:40:00 56.3 49.3 37.6 56.3 56.3 1.9 2.4 0.9 276.7 255.3 0.00 0.0000000 73.7
2021-09-20 20:45:00 54.7 52.7 37.7 54.7 54.7 0.0 1.9 0.5 334.6 287.2 0.00 0.0000000 73.6
2021-09-20 20:50:00 53.9 52.8 37.0 53.9 53.9 3.0 4.4 1.5 224.8 244.3 0.00 0.0000000 73.4
2021-09-20 20:55:00 52.6 54.7 36.8 52.6 52.6 2.4 3.3 2.3 260.1 247.0 0.00 0.0000000 73.3
2021-09-20 21:00:00 52.6 55.7 37.2 52.6 52.6 2.8 3.1 2.4 249.3 254.1 0.00 0.0000000 73.1
2021-09-20 21:05:00 53.4 53.7 37.1 53.4 53.4 2.4 3.7 2.9 279.3 267.4 0.00 0.0000000 73.0
2021-09-20 21:10:00 52.9 53.6 36.5 52.9 52.9 1.0 2.8 1.9 255.1 243.5 0.00 0.0000000 72.9
2021-09-20 21:15:00 51.4 56.1 36.3 51.4 51.4 0.0 2.8 1.2 280.4 214.6 0.00 0.0000000 72.7
2021-09-20 21:20:00 50.6 57.5 36.1 50.6 50.6 1.5 4.7 1.3 239.6 223.8 0.00 0.0000000 72.6
2021-09-20 21:25:00 49.6 59.6 36.1 49.6 49.6 3.0 3.1 1.5 252.7 278.9 0.00 0.0000000 72.4
2021-09-20 21:30:00 48.8 59.5 35.3 48.8 48.8 1.2 3.0 1.8 348.5 251.8 0.00 0.0000000 72.3
2021-09-20 21:35:00 48.5 59.7 35.2 48.5 48.5 2.8 2.8 1.9 274.5 282.5 0.00 0.0000000 72.1
2021-09-20 21:40:00 48.0 60.5 35.0 48.0 48.0 0.0 3.0 1.8 249.7 230.2 0.00 0.0000000 71.9
2021-09-20 21:45:00 47.6 59.4 34.1 47.6 47.6 1.7 3.0 1.1 254.3 247.9 0.00 0.0000000 71.8
2021-09-20 21:50:00 47.5 56.1 32.6 46.7 47.5 3.1 4.4 3.2 242.2 244.9 0.00 0.0000000 71.7
2021-09-20 21:55:00 47.8 54.4 32.1 47.0 47.8 3.1 4.4 3.0 257.2 254.9 0.00 0.0000000 71.5
2021-09-20 22:00:00 47.9 55.1 32.5 47.9 47.9 0.0 3.5 1.6 270.2 230.6 0.00 0.0000000 71.4
2021-09-20 22:05:00 47.4 55.7 32.4 47.4 47.4 1.5 3.5 1.0 243.7 233.6 0.00 0.0000000 71.3

Data is courtesy of the NM Climate Center. DO NOT USE IN LEGAL PROCEEDINGS.